Estación de Illapel

Ultimos registro cada 15 minutos 41
Estación Fecha / Hora Temperatura Humedad Lluvia Velocidad Dirección Radiación Presion
41 Illapel 10-05-2026 10:00 18,6 18 0 0 113 415 1008,3
40 Illapel 10-05-2026 09:45 17,1 20 0 2,2 122 345 1008,3
39 Illapel 10-05-2026 09:30 15,8 24 0 0 89 338 1008,3
38 Illapel 10-05-2026 09:15 14,1 28 0 0,4 110 299 1008,3
37 Illapel 10-05-2026 09:00 12,7 31 0 0,4 132 225 1008,3
36 Illapel 10-05-2026 08:45 11,5 34 0 0,4 107 216 1008,3
35 Illapel 10-05-2026 08:30 9,8 42 0 0 137 163 1008,3
34 Illapel 10-05-2026 08:15 8,9 44 0 0 132 98 1008,3
33 Illapel 10-05-2026 08:00 8,1 46 0 0 135 62 1008,3
32 Illapel 10-05-2026 07:45 6,5 49 0 0,4 128 25 1008,3
31 Illapel 10-05-2026 07:30 5,5 53 0 0 128 5 1008,3
30 Illapel 10-05-2026 07:15 4,3 55 0 0 131 0 1008,3
29 Illapel 10-05-2026 07:00 4 56 0 0,4 123 0 1008,3
28 Illapel 10-05-2026 06:45 4 57 0 0 135 0 1008,3
27 Illapel 10-05-2026 06:30 4,2 57 0 0 135 0 1008,3
26 Illapel 10-05-2026 06:15 4,3 57 0 0 135 0 1008,3
25 Illapel 10-05-2026 06:00 4,7 56 0 0 135 0 1008,3
24 Illapel 10-05-2026 05:45 5,1 56 0 0 135 0 1008,3
23 Illapel 10-05-2026 05:30 5,2 56 0 0 135 0 1008,3
22 Illapel 10-05-2026 05:15 4,7 58 0 0 130 0 1008,3
21 Illapel 10-05-2026 05:00 5,1 57 0 0 131 0 1008,3
20 Illapel 10-05-2026 04:45 5,3 57 0 0,4 143 0 1008,3
19 Illapel 10-05-2026 04:30 5,7 59 0 0 131 0 1008,3
18 Illapel 10-05-2026 04:15 5,2 59 0 0 148 0 1008,3
17 Illapel 10-05-2026 04:00 5,4 59 0 0,4 148 0 1008,3
16 Illapel 10-05-2026 03:45 5,8 57 0 0 149 0 1008,3
15 Illapel 10-05-2026 03:30 6,7 56 0 0 119 0 1008,3
14 Illapel 10-05-2026 03:15 7,6 55 0 0 140 0 1008,3
13 Illapel 10-05-2026 03:00 7 57 0 0,4 141 0 1008,3
12 Illapel 10-05-2026 02:45 6,1 58 0 0 132 0 1008,3
11 Illapel 10-05-2026 02:30 6,4 57 0 0 132 0 1008,3
10 Illapel 10-05-2026 02:15 7,1 57 0 0 149 0 1008,3
9 Illapel 10-05-2026 02:00 7,5 55 0 0 148 0 1008,3
8 Illapel 10-05-2026 01:45 7,6 56 0 0 139 0 1008,3
7 Illapel 10-05-2026 01:30 7,8 54 0 0,4 141 0 1008,3
6 Illapel 10-05-2026 01:15 7,6 52 0 0 131 0 1008,3
5 Illapel 10-05-2026 01:00 7,3 52 0 0,9 155 0 1008,3
4 Illapel 10-05-2026 00:45 7,4 48 0 0 133 0 1008,3
3 Illapel 10-05-2026 00:30 7,3 45 0 0 135 0 1008,3
2 Illapel 10-05-2026 00:15 6,9 45 0 1,8 155 0 1008,3
1 Illapel 10-05-2026 00:00 6,6 45 0 1,3 181 0 1008,3